Time;durP1;ratioP1;P1;durP2;ratioP2;P2;SDS_P1;SDS_P2;PMS_P1;PMS_P2;Temp;Humidity;BMP_temperature;BMP_pressure;BME280_temperature;BME280_humidity;BME280_pressure;Samples;Min_cycle;Max_cycle;Signal;HPM_P1;HPM_P2
2023/10/09 00:01:17;;;;;;;20.90;13.83;;;14.70;99.90;;;;;;6104610;23;20679;-71
2023/10/09 00:03:45;;;;;;;17.80;13.30;;;14.80;99.90;;;;;;6056390;23;20405;-73
2023/10/09 00:06:14;;;;;;;26.27;14.80;;;14.80;99.90;;;;;;6079605;23;20199;-72
2023/10/09 00:08:44;;;;;;;20.57;13.20;;;14.70;99.90;;;;;;6104377;23;20353;-73
2023/10/09 00:11:16;;;;;;;17.60;12.60;;;14.70;99.90;;;;;;6055266;23;20373;-73
2023/10/09 00:13:57;;;;;;;20.10;14.73;;;14.70;99.90;;;;;;6104096;23;20400;-72
2023/10/09 00:16:33;;;;;;;19.27;13.67;;;14.70;99.90;;;;;;6088333;23;20428;-72
2023/10/09 00:19:14;;;;;;;16.10;11.30;;;14.60;99.90;;;;;;6103637;23;20392;-71
2023/10/09 00:21:44;;;;;;;22.03;12.93;;;14.60;99.90;;;;;;6102499;23;20427;-71
2023/10/09 00:24:13;;;;;;;16.73;12.03;;;14.50;99.90;;;;;;6103786;23;20428;-73
2023/10/09 00:26:47;;;;;;;16.57;11.83;;;14.50;99.90;;;;;;6104171;23;20371;-73
2023/10/09 00:29:22;;;;;;;18.90;12.27;;;14.50;99.90;;;;;;6103886;23;20379;-72
2023/10/09 00:32:37;;;;;;;14.03;10.90;;;14.40;99.90;;;;;;6104922;23;20408;-72
2023/10/09 00:34:43;;;;;;;17.47;11.70;;;14.40;99.90;;;;;;6096861;23;20409;-72
2023/10/09 00:37:23;;;;;;;19.60;12.63;;;14.30;99.90;;;;;;6104950;23;20373;-73
2023/10/09 00:39:56;;;;;;;20.30;12.00;;;14.30;99.90;;;;;;6080943;23;20219;-73
2023/10/09 00:42:27;;;;;;;16.67;10.93;;;14.20;99.90;;;;;;6103663;23;20365;-72
2023/10/09 00:44:53;;;;;;;15.70;11.47;;;14.20;99.90;;;;;;6103615;23;20396;-72
2023/10/09 00:47:34;;;;;;;15.77;10.77;;;14.10;99.90;;;;;;6105106;23;20365;-72
2023/10/09 00:50:10;;;;;;;13.13;8.77;;;14.10;99.90;;;;;;6104561;23;20671;-73
2023/10/09 00:52:44;;;;;;;13.27;10.50;;;14.00;99.90;;;;;;6104290;23;20444;-72
2023/10/09 00:55:20;;;;;;;16.93;10.93;;;14.00;99.90;;;;;;6105385;23;20408;-73
2023/10/09 00:57:50;;;;;;;22.50;14.40;;;13.90;99.90;;;;;;6103981;23;20766;-72
2023/10/09 01:00:32;;;;;;;20.47;13.37;;;14.00;99.90;;;;;;6105436;23;20361;-72
2023/10/09 01:03:19;;;;;;;18.57;13.43;;;14.00;99.90;;;;;;6104704;23;20377;-73
2023/10/09 01:05:57;;;;;;;18.20;11.80;;;14.00;99.90;;;;;;6106145;23;20399;-72
2023/10/09 01:08:28;;;;;;;15.90;9.97;;;14.00;99.90;;;;;;6103329;23;20388;-71
2023/10/09 01:11:08;;;;;;;18.13;11.77;;;14.00;99.90;;;;;;6103788;23;20655;-72
2023/10/09 01:16:16;;;;;;;21.10;11.90;;;13.90;99.90;;;;;;6106384;23;20456;-73
2023/10/09 01:18:49;;;;;;;18.10;12.00;;;13.90;99.90;;;;;;6080631;23;20377;-73
2023/10/09 01:21:16;;;;;;;19.10;11.97;;;14.00;99.90;;;;;;6106532;23;20430;-71
2023/10/09 01:26:34;;;;;;;15.77;11.17;;;14.00;99.90;;;;;;6083118;23;20490;-72
2023/10/09 01:29:01;;;;;;;12.07;9.07;;;14.00;99.90;;;;;;6057302;23;20377;-72
2023/10/09 01:31:33;;;;;;;17.10;10.93;;;14.00;99.90;;;;;;6082357;23;20380;-73
2023/10/09 01:34:00;;;;;;;15.60;11.07;;;14.00;99.90;;;;;;6108532;23;20424;-71
2023/10/09 01:36:31;;;;;;;13.63;10.70;;;14.00;99.90;;;;;;6083461;23;20686;-72
2023/10/09 01:39:00;;;;;;;20.80;11.67;;;14.00;99.90;;;;;;6109733;23;20137;-73
2023/10/09 01:41:25;;;;;;;22.40;12.50;;;14.10;99.90;;;;;;6108653;23;20400;-71
2023/10/09 01:43:56;;;;;;;16.63;11.40;;;14.10;99.90;;;;;;6084067;23;20416;-72
2023/10/09 01:46:22;;;;;;;14.23;9.90;;;14.10;99.90;;;;;;6083784;23;20176;-74
2023/10/09 01:48:48;;;;;;;15.00;10.37;;;14.10;99.90;;;;;;6082682;23;20385;-72
2023/10/09 01:51:17;;;;;;;13.20;9.30;;;14.10;99.90;;;;;;6106024;23;20611;-72
2023/10/09 01:53:44;;;;;;;14.53;8.57;;;14.10;99.90;;;;;;6108223;23;20432;-73
2023/10/09 01:56:17;;;;;;;19.30;11.57;;;14.10;99.90;;;;;;6105339;23;20762;-72
2023/10/09 01:58:46;;;;;;;14.93;11.20;;;14.20;99.90;;;;;;6103090;23;20377;-72
2023/10/09 02:01:13;;;;;;;16.00;10.23;;;14.20;99.90;;;;;;6079891;23;20455;-71
2023/10/09 02:03:42;;;;;;;12.07;9.47;;;14.20;99.90;;;;;;6082590;23;20404;-72
2023/10/09 02:06:27;;;;;;;13.70;9.70;;;14.20;99.90;;;;;;6105776;23;20364;-72
2023/10/09 02:08:56;;;;;;;13.23;8.60;;;14.20;99.90;;;;;;6080927;23;20377;-72
2023/10/09 02:11:41;;;;;;;12.43;8.33;;;14.20;99.90;;;;;;6057722;23;20388;-72
2023/10/09 02:14:19;;;;;;;11.63;8.37;;;14.20;99.90;;;;;;6059911;23;20436;-73
2023/10/09 02:17:02;;;;;;;11.13;8.10;;;14.30;99.90;;;;;;6108830;23;20444;-72
2023/10/09 02:19:34;;;;;;;9.70;7.40;;;14.30;99.90;;;;;;6084305;23;20368;-73
2023/10/09 02:22:12;;;;;;;10.50;7.83;;;14.30;99.90;;;;;;6083395;23;20357;-71
2023/10/09 02:27:40;;;;;;;10.10;6.43;;;14.40;99.90;;;;;;6083209;23;20376;-72
2023/10/09 02:30:09;;;;;;;8.63;5.53;;;14.40;99.90;;;;;;6082991;23;20380;-73
2023/10/09 02:32:35;;;;;;;7.70;4.90;;;14.40;99.90;;;;;;6078025;23;20421;-72
2023/10/09 02:35:19;;;;;;;8.33;6.13;;;14.40;99.90;;;;;;6077959;23;20667;-72
2023/10/09 02:37:46;;;;;;;8.40;5.40;;;14.40;99.90;;;;;;6078709;23;20149;-73
2023/10/09 02:40:25;;;;;;;10.97;8.10;;;14.40;99.90;;;;;;6078371;23;20373;-73
2023/10/09 02:42:51;;;;;;;9.97;7.73;;;14.40;99.90;;;;;;6103953;23;20377;-72
2023/10/09 02:45:28;;;;;;;9.37;6.80;;;14.40;99.90;;;;;;6104356;23;20516;-72
2023/10/09 02:47:55;;;;;;;9.23;6.60;;;14.40;99.90;;;;;;6104415;23;20488;-72
2023/10/09 02:50:22;;;;;;;9.70;7.17;;;14.50;99.90;;;;;;6104042;23;20372;-72
2023/10/09 02:53:00;;;;;;;10.50;8.20;;;14.50;99.90;;;;;;6105410;23;20408;-71
2023/10/09 02:55:27;;;;;;;11.57;8.40;;;14.50;99.90;;;;;;6079914;23;20419;-72
2023/10/09 02:58:07;;;;;;;10.30;8.10;;;14.50;99.90;;;;;;6105206;23;20679;-73
2023/10/09 03:00:36;;;;;;;10.10;7.53;;;14.50;99.90;;;;;;6105449;23;20357;-72
2023/10/09 03:03:06;;;;;;;9.53;7.00;;;14.50;99.90;;;;;;6080211;23;20620;-72
2023/10/09 03:05:32;;;;;;;10.20;7.27;;;14.50;99.90;;;;;;6078725;23;20849;-72
2023/10/09 03:07:59;;;;;;;9.80;6.90;;;14.50;99.90;;;;;;6078786;23;20770;-72
2023/10/09 03:10:25;;;;;;;9.00;6.83;;;14.50;99.90;;;;;;6103167;23;20664;-73
2023/10/09 03:12:53;;;;;;;9.17;6.00;;;14.50;99.90;;;;;;6103070;23;20409;-73
2023/10/09 03:15:22;;;;;;;9.17;5.97;;;14.50;99.90;;;;;;6077886;23;20643;-72
2023/10/09 03:17:48;;;;;;;8.43;6.10;;;14.50;99.90;;;;;;6105986;23;20369;-73
2023/10/09 03:20:17;;;;;;;11.67;7.47;;;14.50;99.90;;;;;;6105723;23;20360;-73
2023/10/09 03:22:44;;;;;;;8.90;6.20;;;14.50;99.90;;;;;;6078881;23;20464;-73
2023/10/09 03:25:19;;;;;;;9.00;6.63;;;14.50;99.90;;;;;;6103172;23;20384;-72
2023/10/09 03:27:45;;;;;;;8.30;5.60;;;14.60;99.90;;;;;;6102724;23;20368;-71
2023/10/09 03:30:22;;;;;;;6.60;5.13;;;14.60;99.90;;;;;;6077571;23;20762;-72
2023/10/09 03:32:51;;;;;;;6.40;4.80;;;14.60;99.90;;;;;;6077965;23;20491;-72
2023/10/09 03:35:24;;;;;;;6.70;4.77;;;14.50;99.90;;;;;;6102953;23;20379;-73
2023/10/09 03:37:59;;;;;;;6.53;4.50;;;14.50;99.90;;;;;;6102386;23;20530;-73
2023/10/09 03:40:27;;;;;;;6.80;5.13;;;14.50;99.90;;;;;;6102157;23;20361;-71
2023/10/09 03:42:52;;;;;;;9.27;6.30;;;14.50;99.90;;;;;;6100786;23;20372;-72
2023/10/09 03:45:25;;;;;;;9.10;6.30;;;14.50;99.90;;;;;;6103354;23;20483;-72
2023/10/09 03:48:08;;;;;;;10.10;7.03;;;14.50;99.90;;;;;;6103341;23;20152;-72
2023/10/09 03:50:37;;;;;;;10.60;7.70;;;14.50;99.90;;;;;;6077855;23;20428;-72
2023/10/09 03:53:06;;;;;;;7.87;6.57;;;14.60;99.90;;;;;;6078599;23;20425;-72
2023/10/09 03:55:33;;;;;;;9.67;6.00;;;14.60;99.90;;;;;;6103344;23;20365;-72
2023/10/09 03:57:59;;;;;;;8.23;5.10;;;14.60;99.90;;;;;;6102846;23;20369;-73
2023/10/09 04:00:28;;;;;;;8.70;6.40;;;14.60;99.90;;;;;;6103652;23;20455;-73
2023/10/09 04:02:58;;;;;;;7.47;5.93;;;14.60;99.90;;;;;;6104255;23;20822;-72
2023/10/09 04:05:24;;;;;;;9.00;6.20;;;14.60;99.90;;;;;;6078845;23;20775;-72
2023/10/09 04:07:53;;;;;;;12.50;8.17;;;14.60;99.90;;;;;;6104369;23;20766;-73
2023/10/09 04:13:10;;;;;;;10.70;6.90;;;14.60;99.90;;;;;;6103189;23;20843;-73
2023/10/09 04:15:36;;;;;;;11.10;8.07;;;14.60;99.90;;;;;;6054890;23;20424;-72
2023/10/09 04:18:03;;;;;;;12.47;8.60;;;14.70;99.90;;;;;;6104478;23;20399;-72
2023/10/09 04:23:04;;;;;;;9.80;7.00;;;14.70;99.90;;;;;;6104776;23;20360;-72
2023/10/09 04:25:41;;;;;;;7.83;5.93;;;14.70;99.90;;;;;;6078998;23;20152;-70
2023/10/09 04:28:09;;;;;;;7.00;5.97;;;14.70;99.90;;;;;;6104178;23;20667;-72
2023/10/09 04:30:46;;;;;;;9.57;6.70;;;14.80;99.90;;;;;;6080237;23;20396;-73
2023/10/09 04:36:12;;;;;;;7.37;6.13;;;14.70;99.90;;;;;;6108067;23;20369;-72
2023/10/09 04:38:38;;;;;;;6.30;5.20;;;14.70;99.90;;;;;;6082897;23;20361;-73
2023/10/09 04:41:08;;;;;;;5.77;5.10;;;14.80;99.90;;;;;;6059696;23;20389;-74
2023/10/09 04:43:34;;;;;;;8.40;5.67;;;14.80;99.90;;;;;;6108068;23;20692;-72
2023/10/09 04:46:07;;;;;;;6.47;5.03;;;14.80;99.90;;;;;;6081542;23;20451;-74
2023/10/09 04:48:33;;;;;;;6.57;4.80;;;14.80;99.90;;;;;;6082491;23;20535;-73
2023/10/09 04:51:34;;;;;;;7.10;4.90;;;14.80;99.90;;;;;;6110170;23;20372;-73
2023/10/09 04:54:12;;;;;;;5.53;4.83;;;14.80;99.90;;;;;;6083152;23;20454;-72
2023/10/09 04:56:51;;;;;;;8.90;5.73;;;14.80;99.90;;;;;;6084000;23;20369;-73
2023/10/09 04:59:24;;;;;;;12.13;7.07;;;14.80;99.90;;;;;;6110084;23;20361;-73
2023/10/09 05:01:59;;;;;;;9.60;6.73;;;14.90;99.90;;;;;;6059848;23;20639;-73
2023/10/09 05:07:22;;;;;;;6.97;5.47;;;15.00;99.90;;;;;;6108211;23;20431;-73
2023/10/09 05:10:14;;;;;;;7.70;5.90;;;15.00;99.90;;;;;;6084276;23;20468;-73
2023/10/09 05:12:46;;;;;;;9.73;6.20;;;15.00;99.90;;;;;;6084581;23;20409;-73
2023/10/09 05:15:16;;;;;;;10.53;6.73;;;15.00;99.90;;;;;;6085725;23;20711;-72
2023/10/09 05:17:51;;;;;;;9.63;6.60;;;15.00;99.90;;;;;;6086332;23;20516;-74
2023/10/09 05:22:58;;;;;;;7.27;6.03;;;15.10;99.90;;;;;;6110066;23;20364;-73
2023/10/09 05:31:08;;;;;;;10.33;6.13;;;15.10;99.90;;;;;;6072091;23;20378;-73
2023/10/09 05:33:36;;;;;;;6.87;5.43;;;15.10;99.90;;;;;;6089204;23;20448;-73
2023/10/09 05:36:17;;;;;;;9.93;6.80;;;15.10;99.90;;;;;;6065346;23;20405;-73
2023/10/09 05:38:58;;;;;;;6.97;5.17;;;15.20;99.90;;;;;;6087370;23;20385;-73
2023/10/09 05:55:48;;;;;;;6.00;5.07;;;15.10;99.90;;;;;;6111237;23;20390;-73
2023/10/09 06:06:32;;;;;;;6.27;4.27;;;15.30;99.90;;;;;;6112653;23;20703;-74
2023/10/09 06:11:49;;;;;;;5.67;4.27;;;15.40;99.90;;;;;;6111316;23;20423;-74
2023/10/09 06:14:26;;;;;;;6.00;4.53;;;15.40;99.90;;;;;;6111749;23;20396;-74
2023/10/09 06:19:44;;;;;;;7.07;4.40;;;15.50;99.90;;;;;;6141440;23;20359;-75
2023/10/09 06:24:57;;;;;;;5.67;3.80;;;15.60;99.90;;;;;;6142355;23;20419;-76
2023/10/09 06:33:04;;;;;;;7.90;4.60;;;15.80;99.90;;;;;;6143252;23;20412;-75
2023/10/09 06:35:35;;;;;;;5.00;4.23;;;15.80;99.90;;;;;;6060703;23;20385;-75
2023/10/09 06:45:55;;;;;;;5.63;4.50;;;16.00;99.90;;;;;;6059344;23;20402;-75
2023/10/09 06:51:12;;;;;;;6.63;4.10;;;16.10;99.90;;;;;;6082170;23;20385;-74
2023/10/09 06:56:48;;;;;;;8.67;4.90;;;16.40;99.90;;;;;;6081603;23;20396;-75
2023/10/09 06:59:24;;;;;;;6.37;4.70;;;16.50;99.90;;;;;;6084894;23;20412;-75
2023/10/09 07:07:02;;;;;;;10.23;5.93;;;16.90;99.90;;;;;;6129188;23;20384;-75
2023/10/09 07:09:42;;;;;;;7.60;5.40;;;16.90;99.90;;;;;;6118119;23;20379;-76
2023/10/09 07:12:20;;;;;;;7.43;4.70;;;17.00;99.90;;;;;;6119264;23;20418;-74
2023/10/09 07:17:26;;;;;;;5.67;4.30;;;17.10;99.90;;;;;;6097253;23;20690;-75
2023/10/09 07:24:53;;;;;;;4.17;3.77;;;17.10;99.90;;;;;;6118983;23;20404;-76
2023/10/09 07:33:05;;;;;;;8.37;4.23;;;17.30;99.90;;;;;;6120618;23;20430;-76
2023/10/09 07:38:14;;;;;;;6.33;4.37;;;17.50;99.90;;;;;;6124327;23;20403;-76
2023/10/09 07:41:33;;;;;;;5.03;3.80;;;17.60;99.90;;;;;;6095033;23;20411;-76
2023/10/09 07:43:47;;;;;;;6.93;5.00;;;17.80;99.90;;;;;;6144318;23;20402;-75
2023/10/09 07:46:32;;;;;;;6.00;4.77;;;18.00;99.90;;;;;;6094749;23;20387;-76
2023/10/09 07:49:24;;;;;;;5.37;3.70;;;18.10;99.90;;;;;;6072327;23;20158;-75
2023/10/09 07:51:52;;;;;;;9.00;6.33;;;18.20;99.90;;;;;;6096452;23;20426;-75
2023/10/09 07:54:31;;;;;;;9.43;6.03;;;18.30;99.90;;;;;;6094324;23;20411;-75
2023/10/09 07:57:08;;;;;;;6.30;4.80;;;18.30;99.90;;;;;;6119786;23;20378;-74
2023/10/09 07:59:40;;;;;;;9.20;6.60;;;18.30;99.90;;;;;;6121090;23;20676;-74
2023/10/09 08:02:13;;;;;;;7.50;6.00;;;18.30;99.90;;;;;;6118337;23;20383;-73
2023/10/09 08:04:48;;;;;;;9.20;7.47;;;18.20;99.90;;;;;;6098411;23;20685;-76
2023/10/09 08:07:34;;;;;;;7.70;6.20;;;18.20;99.90;;;;;;6092403;23;20383;-73
2023/10/09 08:18:09;;;;;;;9.43;6.40;;;18.20;99.90;;;;;;6087819;23;20368;-73
2023/10/09 08:26:16;;;;;;;5.63;4.77;;;18.40;99.90;;;;;;6094681;23;20372;-76
2023/10/09 08:32:18;;;;;;;5.67;3.93;;;18.60;99.90;;;;;;6097365;23;20450;-77
2023/10/09 08:34:53;;;;;;;5.00;4.10;;;18.80;99.90;;;;;;6057893;23;20457;-78
2023/10/09 08:37:30;;;;;;;5.40;4.10;;;18.90;99.90;;;;;;6021427;23;20398;-76
2023/10/09 08:39:58;;;;;;;5.57;4.37;;;19.00;99.90;;;;;;6039313;23;20393;-77
2023/10/09 08:42:39;;;;;;;4.50;3.27;;;19.00;99.90;;;;;;6087268;23;20429;-76
2023/10/09 08:45:24;;;;;;;17.53;7.53;;;19.00;99.90;;;;;;6060471;23;20497;-78
2023/10/09 08:48:04;;;;;;;9.27;6.13;;;18.90;99.90;;;;;;6087037;23;20361;-77
2023/10/09 08:50:35;;;;;;;9.20;5.43;;;19.00;99.90;;;;;;6063080;23;20398;-77
2023/10/09 08:53:03;;;;;;;9.97;7.80;;;19.00;99.90;;;;;;6064551;23;20434;-79
2023/10/09 08:56:04;;;;;;;9.53;6.13;;;19.10;99.90;;;;;;6087170;23;20386;-77
2023/10/09 08:58:49;;;;;;;10.03;7.07;;;19.20;99.90;;;;;;6088188;23;20374;-77
2023/10/09 09:01:24;;;;;;;8.30;6.50;;;19.30;99.90;;;;;;6087407;23;20393;-76
2023/10/09 09:03:55;;;;;;;7.40;5.67;;;19.40;99.90;;;;;;6064416;23;20414;-75
2023/10/09 09:06:23;;;;;;;11.30;6.10;;;19.60;99.90;;;;;;6063012;23;20455;-76
2023/10/09 09:08:54;;;;;;;6.20;5.20;;;19.80;99.90;;;;;;6061069;23;20383;-77
2023/10/09 09:11:23;;;;;;;8.37;7.10;;;19.80;99.90;;;;;;6063101;23;20458;-74
2023/10/09 09:14:21;;;;;;;9.20;6.70;;;19.90;99.90;;;;;;6087085;23;20378;-77
2023/10/09 09:17:30;;;;;;;8.00;5.20;;;19.80;99.90;;;;;;6066263;23;20181;-78
2023/10/09 09:19:59;;;;;;;7.60;4.80;;;19.80;99.90;;;;;;6068392;23;20421;-78
2023/10/09 09:22:26;;;;;;;6.10;4.43;;;19.80;99.90;;;;;;6043469;23;20397;-76
2023/10/09 09:25:09;;;;;;;7.93;5.10;;;19.90;99.90;;;;;;6089972;23;20409;-76
2023/10/09 09:28:20;;;;;;;7.80;5.20;;;20.00;99.90;;;;;;6042530;23;20397;-79
2023/10/09 09:31:22;;;;;;;7.90;4.80;;;20.20;99.90;;;;;;6098625;23;20529;-79
2023/10/09 09:34:25;;;;;;;8.40;5.93;;;20.30;99.90;;;;;;6094130;23;20414;-77
2023/10/09 09:37:51;;;;;;;10.17;6.50;;;20.60;99.90;;;;;;6048219;23;20386;-76
2023/10/09 09:40:29;;;;;;;14.20;6.60;;;20.70;99.10;;;;;;6070554;23;20377;-78
2023/10/09 09:43:05;;;;;;;10.00;5.33;;;20.80;98.00;;;;;;6003863;23;20413;-77
2023/10/09 09:45:46;;;;;;;11.07;5.60;;;20.80;97.70;;;;;;6040833;23;20394;-80
2023/10/09 09:48:15;;;;;;;7.00;5.80;;;20.80;96.90;;;;;;5996152;23;20402;-77
2023/10/09 09:50:44;;;;;;;9.30;5.90;;;20.70;96.80;;;;;;6007812;23;20400;-77
2023/10/09 09:53:16;;;;;;;7.80;5.53;;;20.70;96.80;;;;;;5984403;24;20412;-77
2023/10/09 09:55:57;;;;;;;10.30;6.90;;;20.70;96.80;;;;;;5961522;24;20388;-78
2023/10/09 09:58:42;;;;;;;7.43;6.00;;;20.90;95.50;;;;;;5987503;23;20380;-77
2023/10/09 10:01:24;;;;;;;7.30;5.30;;;21.00;94.70;;;;;;5983348;24;20399;-78
2023/10/09 10:03:58;;;;;;;12.37;6.60;;;21.20;94.60;;;;;;5984500;24;20418;-77
2023/10/09 10:06:28;;;;;;;11.20;5.87;;;21.40;92.20;;;;;;5983296;23;20387;-78
2023/10/09 10:09:03;;;;;;;7.23;4.97;;;21.60;92.10;;;;;;5938610;24;20404;-77
2023/10/09 10:11:51;;;;;;;6.50;4.80;;;21.80;91.10;;;;;;5983612;24;20424;-76
2023/10/09 10:14:43;;;;;;;6.00;4.40;;;22.00;90.70;;;;;;5957762;24;20412;-75
2023/10/09 10:17:18;;;;;;;8.13;4.87;;;22.30;90.00;;;;;;5982957;23;20471;-74
2023/10/09 10:22:47;;;;;;;7.90;4.97;;;22.90;83.40;;;;;;6062273;23;20421;-74
2023/10/09 10:25:32;;;;;;;7.33;4.30;;;23.00;81.60;;;;;;6040331;23;20423;-74
2023/10/09 10:28:35;;;;;;;5.03;3.70;;;23.10;80.20;;;;;;6039630;23;20441;-73
2023/10/09 10:31:07;;;;;;;4.50;3.20;;;23.20;78.70;;;;;;6091762;23;20512;-76
2023/10/09 10:33:53;;;;;;;8.23;5.40;;;23.30;78.10;;;;;;6039947;23;20461;-73
2023/10/09 10:36:22;;;;;;;4.40;3.53;;;23.30;75.60;;;;;;6064531;23;20369;-75
2023/10/09 10:39:19;;;;;;;9.50;5.20;;;23.30;76.00;;;;;;6042053;23;20373;-74
2023/10/09 10:42:00;;;;;;;7.90;4.77;;;23.40;72.80;;;;;;6065542;23;20384;-75
2023/10/09 10:44:45;;;;;;;9.17;5.47;;;23.40;72.30;;;;;;6066739;23;20695;-74
2023/10/09 10:47:26;;;;;;;4.63;4.07;;;23.40;72.10;;;;;;6067435;23;20401;-76
2023/10/09 10:50:16;;;;;;;7.90;4.13;;;23.50;72.20;;;;;;6087500;23;20378;-75
2023/10/09 10:52:41;;;;;;;6.70;4.63;;;23.50;71.70;;;;;;6062008;23;20417;-75
2023/10/09 10:58:13;;;;;;;9.00;4.93;;;23.60;70.80;;;;;;6065606;23;20457;-76
2023/10/09 11:04:24;;;;;;;7.90;4.43;;;23.60;69.90;;;;;;6087276;23;20533;-76
2023/10/09 11:06:37;;;;;;;5.63;4.17;;;23.60;69.20;;;;;;6076322;23;20397;-75
2023/10/09 11:09:35;;;;;;;8.80;4.67;;;23.60;69.40;;;;;;6063951;23;20400;-76
2023/10/09 11:11:55;;;;;;;7.40;5.07;;;23.70;68.80;;;;;;6087606;23;20449;-76
2023/10/09 11:14:23;;;;;;;9.07;5.00;;;23.70;68.90;;;;;;6085552;23;20760;-73
2023/10/09 11:16:50;;;;;;;6.80;4.57;;;23.80;68.00;;;;;;6087075;23;20374;-72
2023/10/09 11:24:36;;;;;;;8.57;4.73;;;23.70;66.20;;;;;;6092716;23;20424;-75
2023/10/09 11:27:07;;;;;;;9.70;4.93;;;23.70;64.20;;;;;;6020601;23;20484;-75
2023/10/09 11:32:25;;;;;;;4.97;4.30;;;23.80;63.10;;;;;;6090348;23;20433;-75
2023/10/09 11:35:27;;;;;;;9.40;4.80;;;23.90;61.90;;;;;;6096215;23;20447;-76
2023/10/09 11:41:22;;;;;;;12.03;5.33;;;23.80;59.50;;;;;;6141548;23;20474;-77
2023/10/09 11:43:53;;;;;;;7.90;5.17;;;23.70;59.30;;;;;;6120407;23;20409;-76
2023/10/09 11:46:48;;;;;;;12.07;5.30;;;23.60;59.70;;;;;;6095627;23;20372;-77
2023/10/09 12:00:29;;;;;;;4.90;4.30;;;23.80;59.00;;;;;;6093264;23;20382;-76
2023/10/09 12:03:06;;;;;;;10.00;4.97;;;23.80;59.50;;;;;;6090129;23;20362;-77
2023/10/09 12:05:35;;;;;;;6.20;4.47;;;23.80;59.80;;;;;;5998130;23;20431;-77
2023/10/09 12:08:08;;;;;;;8.73;6.00;;;23.90;59.00;;;;;;6045587;23;20416;-78
2023/10/09 12:10:38;;;;;;;9.73;5.17;;;23.90;58.80;;;;;;6065903;23;20374;-73
2023/10/09 12:13:07;;;;;;;6.87;4.93;;;23.80;59.10;;;;;;6067875;23;20433;-77
2023/10/09 12:15:37;;;;;;;7.20;4.33;;;23.70;59.30;;;;;;6066482;23;20368;-77
2023/10/09 12:18:14;;;;;;;12.10;4.93;;;23.70;59.40;;;;;;6092405;23;20404;-76
2023/10/09 12:20:52;;;;;;;7.67;4.67;;;23.70;59.20;;;;;;6093332;23;20376;-77
2023/10/09 12:23:22;;;;;;;8.30;4.40;;;23.60;59.30;;;;;;6066467;23;20400;-77
2023/10/09 12:25:50;;;;;;;9.73;5.27;;;23.70;59.70;;;;;;6019025;23;20378;-76
2023/10/09 12:28:20;;;;;;;8.73;5.53;;;23.60;60.10;;;;;;6091037;23;20397;-77
2023/10/09 12:31:09;;;;;;;8.17;5.47;;;23.50;60.70;;;;;;6068196;23;20389;-78
2023/10/09 12:33:42;;;;;;;7.87;5.80;;;23.50;61.30;;;;;;6068749;23;20496;-77
2023/10/09 12:36:19;;;;;;;10.77;5.73;;;23.30;62.00;;;;;;5997452;23;20385;-78
2023/10/09 12:38:58;;;;;;;8.60;5.83;;;23.10;63.20;;;;;;6042029;23;20392;-77
2023/10/09 12:47:24;;;;;;;9.77;6.00;;;23.10;64.10;;;;;;6099024;23;20448;-78
2023/10/09 12:49:55;;;;;;;7.80;6.00;;;23.00;63.60;;;;;;6082531;23;20426;-79
2023/10/09 13:01:43;;;;;;;8.90;5.30;;;23.00;63.10;;;;;;6144979;23;20459;-77
2023/10/09 13:04:44;;;;;;;6.93;5.10;;;22.90;63.50;;;;;;6097203;23;20436;-78
2023/10/09 13:07:12;;;;;;;7.93;5.10;;;22.90;63.90;;;;;;6097744;23;20423;-78
2023/10/09 13:09:44;;;;;;;7.90;4.20;;;22.90;64.30;;;;;;6081054;23;20435;-76
2023/10/09 13:15:53;;;;;;;9.03;4.93;;;22.90;64.20;;;;;;6130834;23;20417;-76
2023/10/09 13:18:19;;;;;;;11.10;5.90;;;22.80;64.90;;;;;;6097586;23;20471;-74
2023/10/09 13:20:48;;;;;;;10.80;6.03;;;22.80;65.00;;;;;;6121323;23;20365;-75
2023/10/09 13:26:17;;;;;;;8.40;6.23;;;22.80;64.80;;;;;;6148111;23;20454;-75
2023/10/09 13:28:51;;;;;;;7.17;5.07;;;22.80;64.90;;;;;;6151592;23;20384;-75
2023/10/09 13:31:17;;;;;;;9.77;6.00;;;22.70;65.90;;;;;;6152381;23;20387;-75
2023/10/09 13:33:45;;;;;;;6.63;4.73;;;22.70;64.80;;;;;;6152081;23;20419;-76
2023/10/09 13:41:57;;;;;;;10.47;5.23;;;22.70;64.70;;;;;;6125639;23;20443;-74
2023/10/09 13:45:15;;;;;;;10.57;5.90;;;22.70;64.90;;;;;;6150965;23;20499;-75
2023/10/09 13:48:52;;;;;;;7.70;5.53;;;22.60;65.20;;;;;;6155293;23;20370;-76
2023/10/09 14:08:00;;;;;;;7.13;5.20;;;22.00;68.20;;;;;;6118094;23;20428;-79
2023/10/09 14:19:25;;;;;;;14.17;5.77;;;22.10;69.30;;;;;;6064842;23;20383;-76
2023/10/09 14:21:51;;;;;;;6.90;5.20;;;21.90;69.50;;;;;;6014125;23;20439;-75
2023/10/09 14:27:35;;;;;;;12.20;5.70;;;21.80;70.40;;;;;;6123410;23;20468;-76
2023/10/09 14:30:12;;;;;;;9.40;5.80;;;21.80;70.80;;;;;;6121858;23;20392;-77
2023/10/09 14:32:51;;;;;;;8.53;6.17;;;21.80;70.60;;;;;;6075250;23;20431;-78
2023/10/09 14:39:00;;;;;;;9.40;6.60;;;21.80;70.10;;;;;;6172890;23;20449;-78
2023/10/09 14:41:33;;;;;;;11.43;5.77;;;21.80;70.40;;;;;;6065805;23;20577;-78
2023/10/09 14:50:01;;;;;;;9.60;6.30;;;22.00;70.60;;;;;;6138250;23;20470;-78
2023/10/09 14:52:51;;;;;;;13.97;6.87;;;22.00;71.80;;;;;;6134026;23;20434;-77
2023/10/09 14:55:28;;;;;;;10.33;7.07;;;22.00;71.30;;;;;;6102180;23;20521;-78
2023/10/09 14:57:56;;;;;;;11.70;6.40;;;22.00;71.80;;;;;;6131268;23;20382;-77
2023/10/09 15:00:23;;;;;;;9.90;6.33;;;22.00;72.00;;;;;;6155080;23;20370;-77
2023/10/09 15:02:53;;;;;;;9.83;7.40;;;22.00;71.70;;;;;;6091113;23;20802;-78
2023/10/09 15:05:22;;;;;;;7.97;6.33;;;21.90;72.00;;;;;;6013443;23;20382;-74
2023/10/09 15:08:29;;;;;;;8.47;6.30;;;21.90;72.00;;;;;;6038589;23;20472;-79
2023/10/09 15:13:57;;;;;;;10.23;7.20;;;21.70;72.70;;;;;;6092215;23;20405;-77
2023/10/09 15:16:31;;;;;;;10.80;7.40;;;21.60;73.30;;;;;;6092574;23;20384;-77
2023/10/09 15:19:09;;;;;;;10.70;6.97;;;21.60;73.60;;;;;;6094427;23;20366;-78
2023/10/09 15:21:43;;;;;;;8.70;6.13;;;21.50;73.90;;;;;;6069058;23;20408;-76
2023/10/09 15:27:03;;;;;;;13.17;6.83;;;21.30;74.40;;;;;;6145936;23;20449;-79
2023/10/09 15:29:37;;;;;;;9.60;6.83;;;21.20;74.70;;;;;;6077888;23;20447;-79
2023/10/09 15:32:14;;;;;;;13.80;6.87;;;21.20;75.10;;;;;;6102940;23;20415;-78
2023/10/09 15:34:48;;;;;;;10.17;7.70;;;21.20;74.90;;;;;;6151642;23;20379;-77
2023/10/09 15:37:17;;;;;;;14.53;7.60;;;21.20;75.10;;;;;;6126625;23;20391;-78
2023/10/09 15:39:47;;;;;;;10.60;7.17;;;21.20;75.40;;;;;;6127224;23;20364;-77
2023/10/09 15:42:16;;;;;;;11.47;5.73;;;21.20;75.70;;;;;;6062698;23;20386;-77
2023/10/09 15:44:47;;;;;;;8.77;6.23;;;21.10;76.00;;;;;;6015949;23;20398;-79
2023/10/09 15:47:16;;;;;;;8.07;6.40;;;21.10;76.20;;;;;;6061718;23;20457;-78
2023/10/09 15:49:46;;;;;;;9.10;7.83;;;21.10;76.10;;;;;;6040641;23;20378;-78
2023/10/09 15:52:20;;;;;;;11.77;6.90;;;21.20;75.50;;;;;;6039927;23;20414;-78
2023/10/09 15:54:48;;;;;;;10.40;6.37;;;21.10;76.60;;;;;;6038413;23;20402;-76
2023/10/09 16:00:13;;;;;;;10.23;6.73;;;20.90;76.30;;;;;;6150581;23;20424;-79
2023/10/09 16:02:42;;;;;;;9.60;6.97;;;20.80;76.90;;;;;;6109144;23;20386;-77
2023/10/09 16:05:16;;;;;;;8.70;6.43;;;20.70;77.40;;;;;;6131715;23;20470;-79
2023/10/09 16:07:45;;;;;;;11.23;6.70;;;20.60;77.90;;;;;;6092167;23;20381;-77
2023/10/09 16:10:12;;;;;;;9.57;7.70;;;20.40;78.50;;;;;;6096573;23;20428;-77
2023/10/09 16:12:42;;;;;;;8.97;6.20;;;20.30;79.40;;;;;;6061487;23;20414;-77
2023/10/09 16:15:10;;;;;;;7.17;6.47;;;20.20;80.10;;;;;;6062573;23;20158;-79
2023/10/09 16:17:39;;;;;;;15.87;8.40;;;20.10;81.40;;;;;;6028595;23;20456;-78
2023/10/09 16:20:21;;;;;;;10.87;6.90;;;20.00;82.40;;;;;;6005525;24;20368;-79
2023/10/09 16:22:55;;;;;;;10.37;6.70;;;19.90;83.20;;;;;;5981530;24;20515;-78
2023/10/09 16:25:24;;;;;;;8.57;5.63;;;19.80;84.30;;;;;;6002894;24;20379;-75
2023/10/09 16:27:50;;;;;;;9.60;6.80;;;19.70;85.60;;;;;;6003880;24;20396;-78
2023/10/09 16:30:20;;;;;;;10.03;7.17;;;19.60;87.00;;;;;;6029474;23;20451;-77
2023/10/09 16:32:53;;;;;;;8.60;6.20;;;19.60;88.00;;;;;;6004688;24;20428;-78
2023/10/09 16:35:23;;;;;;;10.97;6.80;;;19.50;89.10;;;;;;6028226;23;20405;-78
2023/10/09 16:37:51;;;;;;;12.20;6.70;;;19.40;90.10;;;;;;6079290;23;20915;-77
2023/10/09 16:40:20;;;;;;;8.83;6.67;;;19.30;90.60;;;;;;6095501;23;20377;-77
2023/10/09 16:42:53;;;;;;;7.73;6.37;;;19.30;91.50;;;;;;6118580;23;20399;-77
2023/10/09 16:45:19;;;;;;;8.53;6.07;;;19.20;92.30;;;;;;6119259;23;20415;-77
2023/10/09 16:50:34;;;;;;;10.40;7.90;;;19.20;93.90;;;;;;6123012;23;20440;-78
2023/10/09 16:53:10;;;;;;;8.60;7.13;;;19.10;94.60;;;;;;6123209;23;20451;-77
2023/10/09 16:55:58;;;;;;;8.60;6.40;;;19.10;95.10;;;;;;6133891;23;20450;-78
2023/10/09 16:58:27;;;;;;;12.27;9.20;;;19.10;95.80;;;;;;6127785;23;20480;-78
2023/10/09 17:00:56;;;;;;;11.07;8.50;;;19.10;96.40;;;;;;6088332;23;20429;-76
2023/10/09 17:06:09;;;;;;;15.50;8.77;;;19.00;97.60;;;;;;6097629;23;20467;-78